Historyczne dane pomiarowe

Dodano dane terminowe – wersja testowa.

Dane z okresu 1951-2019

Wersja bazy: 1.34 [2019-03-16, lista zmian], aktualizacja planowana na 2019-04-15

Dane meteo z obszaru Polski uzyskane na podstawie danych udostępnionych przez Instytut Meteorologii i Gospodarki Wodnej – Państwowy Instytut Badawczy.

 

Wybierz Datę:    

       

TemperaturaWilgotnośćWiatrCiśnienieOpadyŚniegCzas trwania zjawisk
 Stacja t tx tn tng RH VA  wxwx mslp ppp RRR   cm mm wxwxwxwxwxwxwx
1971-05-15 15.7 22.9 7.4- 60.3- 6.0 5.3---- 4.2------------
1971-05-16 14.2 19.9 8.5- 81.3- 4.3 2.0---- 0.0------------
1971-05-17 18.1 25.4 11.6- 80.0- 1.7 3.0---- 0.0------------
1971-05-18 22.8 31.9 17.3- 61.0- 2.3 3.3---- 0.0------------
1971-05-19 11.9 18.9 9.6- 91.8- 6.0 4.0---- 0.6------------
1971-05-20 10.9 13.4 6.6- 87.0- 2.7 2.3---- 4.8------------
1971-05-21 10.9 12.5 8.7- 85.3- 2.7 1.7---- 0.0------------
1971-05-22 7.8 13.2 6.4- 87.8- 4.0 9.3---- 0.0------------
1971-05-23 8.2 12.0 6.7- 79.8- 5.0 10.0---- 0.0------------
1971-05-24 8.5 11.5 7.1- 85.8- 8.0 9.0---- 11.4------------
1971-05-25 10.4 17.0 5.5- 92.8- 7.7 3.3---- 0.4------------
1971-05-26 9.3 11.2 7.3- 95.8- 5.3 4.0---- 3.3------------
1971-05-27 9.6 12.5 7.0- 96.5- 4.7 4.0---- 0.0------------
1971-05-28 18.5 27.6 10.6- 78.3- 3.7 5.3---- 14.8------------
1971-05-29 16.9 25.0 10.1- 80.3- 4.3 4.7---- 0.0------------
1971-05-30 9.8 11.4 8.5- 97.3- 8.0 2.0---- 0.0------------
1971-05-31 13.1 18.1 8.1- 89.5- 5.3 3.3---- 0.0------------
1971-06-01 13.2 17.4 10.6- 86.5- 5.3 5.3---- 0.0------------
1971-06-02 14.7 21.4 11.6- 86.5- 5.3 3.0---- 0.0------------
1971-06-03 12.1 19.1 9.5- 90.0- 0.3 3.7---- 0.0------------
1971-06-04 16.7 24.4 10.9- 78.8- 1.3 4.0---- 0.0------------
1971-06-05 14.9 18.3 12.3- 89.0- 8.0 5.7---- 2.9------------
1971-06-06 10.5 13.9 9.1- 92.3- 6.3 8.7---- 0.0------------
1971-06-07 10.8 12.1 8.2- 90.0- 3.3 3.7---- 0.0------------
1971-06-08 10.8 12.9 7.5- 89.0- 0.3 5.3---- 0.0------------
1971-06-09 11.7 15.4 9.7- 88.0- 5.0 4.3---- 0.0------------
1971-06-10 11.9 13.6 10.1- 90.8- 8.0 8.7---- 0.9------------
1971-06-11 10.3 12.9 8.9- 95.5- 8.0 4.0---- 0.8------------
1971-06-12 8.8 9.4 8.1- 99.3- 8.0 4.3---- 0.0------------
1971-06-13 8.7 9.3 8.2- 99.3- 8.0 5.0---- 5.4------------
279.5 ms

 

Źródłem pochodzenia danych jest Instytut Meteorologii i Gospodarki Wodnej – Państwowy Instytut Badawczy. Dane Instytutu Meteorologii i Gospodarki Wodnej – Państwowego Instytutu Badawczego zostały przetworzone.

Dane źródłowe można odnaleźć na stronie https://dane.imgw.pl